Time;durP1;ratioP1;P1;durP2;ratioP2;P2;SDS_P1;SDS_P2;PMS_P1;PMS_P2;Temp;Humidity;BMP_temperature;BMP_pressure;BME280_temperature;BME280_humidity;BME280_pressure;Samples;Min_cycle;Max_cycle;Signal;HPM_P1;HPM_P2
2021/03/25 00:01:00;;;;;;;10.83;9.73;;;8.70;61.50;;;;;;5036700;28;20201;-89
2021/03/25 00:03:26;;;;;;;10.77;9.63;;;8.70;61.40;;;;;;5037431;28;20177;-89
2021/03/25 00:05:52;;;;;;;10.40;9.30;;;8.60;61.20;;;;;;5034919;28;20294;-90
2021/03/25 00:08:23;;;;;;;11.80;9.70;;;8.60;61.40;;;;;;5036898;28;20174;-89
2021/03/25 00:10:49;;;;;;;11.80;10.10;;;8.60;61.60;;;;;;5036632;28;20247;-89
2021/03/25 00:13:15;;;;;;;10.53;9.33;;;8.60;61.40;;;;;;5035178;28;20583;-89
2021/03/25 00:15:41;;;;;;;10.40;9.17;;;8.50;62.00;;;;;;5035466;28;20205;-89
2021/03/25 00:18:07;;;;;;;11.33;9.67;;;8.50;62.40;;;;;;5035909;28;20521;-90
2021/03/25 00:20:33;;;;;;;12.90;9.70;;;8.50;62.40;;;;;;5036540;28;20271;-90
2021/03/25 00:23:00;;;;;;;12.33;9.57;;;8.50;62.20;;;;;;5036449;28;20185;-89
2021/03/25 00:25:29;;;;;;;11.70;9.00;;;8.50;62.00;;;;;;5035295;28;20268;-89
2021/03/25 00:27:55;;;;;;;9.70;8.50;;;8.40;62.30;;;;;;5035851;28;20242;-89
2021/03/25 00:30:27;;;;;;;10.93;9.13;;;8.40;62.60;;;;;;5036729;28;20200;-90
2021/03/25 00:32:54;;;;;;;11.00;9.07;;;8.40;62.00;;;;;;5035829;28;20352;-90
2021/03/25 00:35:21;;;;;;;10.00;8.77;;;8.40;62.30;;;;;;5036289;28;20329;-89
2021/03/25 00:37:47;;;;;;;10.30;8.83;;;8.30;62.30;;;;;;5035932;28;20181;-89
2021/03/25 00:40:14;;;;;;;10.43;8.77;;;8.20;62.80;;;;;;5036195;28;20185;-89
2021/03/25 00:42:40;;;;;;;9.20;8.23;;;8.30;64.40;;;;;;5035732;28;20216;-89
2021/03/25 00:45:10;;;;;;;11.00;8.43;;;8.30;63.10;;;;;;5035826;28;20177;-89
2021/03/25 00:47:35;;;;;;;9.70;8.70;;;8.40;62.50;;;;;;5034113;28;20224;-89
2021/03/25 00:50:01;;;;;;;10.00;8.97;;;8.50;62.30;;;;;;5035624;28;20184;-89
2021/03/25 00:52:27;;;;;;;8.23;7.33;;;8.40;62.30;;;;;;5040010;28;20207;-90
2021/03/25 00:54:53;;;;;;;8.80;7.87;;;8.40;63.50;;;;;;5056788;28;20176;-89
2021/03/25 00:57:18;;;;;;;8.73;7.83;;;8.50;63.20;;;;;;5040025;28;20193;-90
2021/03/25 00:59:44;;;;;;;10.33;8.23;;;8.40;62.80;;;;;;5036124;28;20228;-90
2021/03/25 01:02:10;;;;;;;9.63;8.13;;;8.40;62.30;;;;;;5035690;28;20266;-89
2021/03/25 01:04:35;;;;;;;10.37;7.97;;;8.30;62.40;;;;;;5036749;28;20599;-89
2021/03/25 01:07:01;;;;;;;9.13;8.23;;;8.40;62.30;;;;;;5036579;28;20770;-89
2021/03/25 01:09:28;;;;;;;8.27;7.47;;;8.30;62.40;;;;;;5036986;28;20207;-89
2021/03/25 01:11:55;;;;;;;7.77;7.07;;;8.40;62.70;;;;;;5035990;28;20207;-90
2021/03/25 01:14:23;;;;;;;7.10;6.40;;;8.40;62.80;;;;;;5038510;28;20173;-89
2021/03/25 01:16:51;;;;;;;6.60;6.00;;;8.20;63.40;;;;;;5036188;28;20193;-89
2021/03/25 01:19:30;;;;;;;7.50;6.80;;;8.20;63.70;;;;;;5034115;28;20185;-89
2021/03/25 01:21:57;;;;;;;8.67;6.90;;;8.20;63.70;;;;;;5035166;28;20196;-89
2021/03/25 01:24:23;;;;;;;6.80;6.20;;;8.20;63.30;;;;;;5035382;28;20268;-89
2021/03/25 01:26:49;;;;;;;6.80;6.10;;;8.30;63.30;;;;;;5034950;28;20235;-89
2021/03/25 01:29:15;;;;;;;6.83;5.97;;;8.30;63.80;;;;;;5033530;28;20184;-89
2021/03/25 01:31:41;;;;;;;7.00;6.30;;;8.30;63.40;;;;;;5033514;28;20296;-89
2021/03/25 01:34:09;;;;;;;7.37;6.20;;;8.30;62.80;;;;;;5033896;28;20173;-90
2021/03/25 01:36:35;;;;;;;7.47;6.67;;;8.30;63.00;;;;;;5034527;28;20216;-89
2021/03/25 01:39:01;;;;;;;6.43;5.83;;;8.20;63.20;;;;;;5034747;28;20549;-90
2021/03/25 01:41:31;;;;;;;6.43;5.77;;;8.20;63.40;;;;;;5033255;28;20236;-89
2021/03/25 01:43:56;;;;;;;6.87;6.20;;;8.20;63.40;;;;;;5034853;28;20177;-89
2021/03/25 01:46:28;;;;;;;7.33;6.63;;;8.20;62.90;;;;;;5034710;28;20208;-89
2021/03/25 01:49:01;;;;;;;8.57;6.33;;;8.10;63.20;;;;;;5034687;28;20173;-90
2021/03/25 01:51:56;;;;;;;7.67;6.63;;;8.10;63.40;;;;;;5034926;28;20296;-89
2021/03/25 01:54:46;;;;;;;8.27;6.43;;;8.00;63.90;;;;;;5052412;28;20268;-89
2021/03/25 01:57:41;;;;;;;7.50;6.80;;;7.80;63.80;;;;;;5039537;28;20684;-89
2021/03/25 02:00:17;;;;;;;7.13;6.43;;;7.80;63.90;;;;;;5035002;28;20268;-86
2021/03/25 02:03:21;;;;;;;7.23;6.57;;;7.80;63.90;;;;;;5034081;28;20208;-89
2021/03/25 02:06:24;;;;;;;7.10;6.43;;;7.70;64.50;;;;;;5033998;28;20196;-87
2021/03/25 02:08:52;;;;;;;7.77;7.00;;;7.70;64.20;;;;;;5034261;28;20219;-87
2021/03/25 02:11:37;;;;;;;9.83;7.40;;;7.70;64.70;;;;;;5034810;28;20193;-87
2021/03/25 02:14:05;;;;;;;7.53;6.77;;;7.60;64.40;;;;;;5034692;28;20169;-89
2021/03/25 02:16:58;;;;;;;7.17;6.47;;;7.60;64.20;;;;;;5033782;28;20711;-87
2021/03/25 02:19:54;;;;;;;6.17;5.53;;;7.60;64.40;;;;;;5034176;28;20168;-87
2021/03/25 02:22:47;;;;;;;7.17;5.20;;;7.40;66.10;;;;;;5033950;28;20212;-86
2021/03/25 02:25:32;;;;;;;8.50;4.77;;;7.20;66.60;;;;;;5047481;28;20192;-87
2021/03/25 02:28:04;;;;;;;6.80;5.30;;;6.80;68.00;;;;;;5051533;28;20533;-87
2021/03/25 02:30:45;;;;;;;5.67;4.80;;;6.80;68.50;;;;;;5052679;28;20184;-88
2021/03/25 02:33:16;;;;;;;9.30;5.20;;;6.80;68.00;;;;;;5053402;28;20183;-87
2021/03/25 02:35:50;;;;;;;5.30;4.80;;;6.70;69.30;;;;;;5053314;28;20242;-87
2021/03/25 02:38:39;;;;;;;6.00;5.50;;;6.70;70.00;;;;;;5053587;28;20231;-87
2021/03/25 02:41:13;;;;;;;6.10;5.50;;;6.80;68.80;;;;;;5052140;28;20200;-87
2021/03/25 02:43:39;;;;;;;5.83;4.63;;;6.90;68.20;;;;;;5053508;28;20680;-87
2021/03/25 02:46:14;;;;;;;6.57;5.07;;;7.00;67.50;;;;;;5053082;28;20200;-87
2021/03/25 02:48:43;;;;;;;5.23;4.73;;;7.10;67.30;;;;;;5053291;28;20192;-87
2021/03/25 02:51:35;;;;;;;5.90;5.33;;;7.20;67.70;;;;;;5051734;28;20196;-87
2021/03/25 02:54:01;;;;;;;5.77;5.20;;;7.30;66.50;;;;;;5053049;28;20185;-87
2021/03/25 02:56:41;;;;;;;5.27;4.80;;;7.40;66.60;;;;;;5053065;28;20180;-87
2021/03/25 02:59:27;;;;;;;5.57;5.07;;;7.40;66.10;;;;;;5053206;28;20168;-87
2021/03/25 03:01:57;;;;;;;5.77;5.20;;;7.40;66.20;;;;;;5053442;28;20200;-87
2021/03/25 03:04:30;;;;;;;6.83;5.07;;;7.40;66.00;;;;;;5052988;28;20188;-88
2021/03/25 03:07:06;;;;;;;6.40;5.30;;;7.40;65.40;;;;;;5051320;28;20200;-88
2021/03/25 03:09:41;;;;;;;5.70;5.20;;;7.30;65.50;;;;;;5054186;28;20257;-87
2021/03/25 03:12:18;;;;;;;5.53;4.93;;;7.20;66.10;;;;;;5061112;28;20193;-88
2021/03/25 03:14:56;;;;;;;5.90;5.30;;;7.20;66.30;;;;;;5060095;28;20175;-88
2021/03/25 03:17:25;;;;;;;5.80;5.20;;;7.10;66.30;;;;;;5060364;28;20169;-88
2021/03/25 03:20:11;;;;;;;7.37;5.63;;;7.00;65.90;;;;;;5062499;28;20330;-88
2021/03/25 03:22:37;;;;;;;6.67;5.57;;;6.90;67.20;;;;;;5031038;28;20208;-88
2021/03/25 03:25:14;;;;;;;5.87;5.33;;;6.90;66.80;;;;;;5061581;28;20191;-88
2021/03/25 03:28:05;;;;;;;5.50;5.00;;;6.90;66.70;;;;;;5061586;28;20277;-87
2021/03/25 03:30:39;;;;;;;6.13;4.80;;;6.90;67.50;;;;;;5062097;28;20205;-88
2021/03/25 03:33:31;;;;;;;5.53;4.93;;;6.80;66.50;;;;;;5061891;28;20178;-88
2021/03/25 03:36:23;;;;;;;7.00;5.23;;;6.80;66.50;;;;;;5061841;28;20168;-87
2021/03/25 03:38:51;;;;;;;6.03;5.00;;;6.80;66.10;;;;;;5058992;28;20193;-88
2021/03/25 03:41:26;;;;;;;6.03;5.43;;;6.70;67.10;;;;;;5061895;28;20250;-88
2021/03/25 03:43:53;;;;;;;5.53;5.03;;;6.70;67.30;;;;;;5061119;28;20187;-87
2021/03/25 03:46:26;;;;;;;5.73;5.23;;;6.80;67.60;;;;;;5061713;28;20218;-87
2021/03/25 03:49:10;;;;;;;5.63;5.13;;;6.90;67.80;;;;;;5061463;28;20157;-88
2021/03/25 03:52:01;;;;;;;4.70;4.30;;;6.90;67.60;;;;;;5062275;28;20193;-88
2021/03/25 03:54:27;;;;;;;5.70;5.10;;;7.00;67.20;;;;;;5062591;28;20180;-87
2021/03/25 03:57:17;;;;;;;5.63;5.00;;;6.90;66.40;;;;;;5061989;28;20172;-87
2021/03/25 03:59:48;;;;;;;6.10;4.80;;;6.90;66.20;;;;;;5062199;28;20171;-88
2021/03/25 04:02:42;;;;;;;6.37;5.20;;;6.80;66.40;;;;;;5061296;28;20204;-88
2021/03/25 04:05:16;;;;;;;5.93;5.33;;;6.90;66.30;;;;;;5061718;28;20187;-88
2021/03/25 04:07:46;;;;;;;5.70;5.00;;;6.90;66.20;;;;;;5060711;28;20208;-88
2021/03/25 04:10:14;;;;;;;5.70;5.10;;;6.90;66.80;;;;;;5061690;28;20183;-88
2021/03/25 04:12:46;;;;;;;8.47;5.30;;;6.90;66.10;;;;;;5061523;28;20213;-88
2021/03/25 04:15:26;;;;;;;5.83;5.33;;;6.80;66.60;;;;;;5061465;28;20165;-88
2021/03/25 04:17:57;;;;;;;5.93;5.43;;;6.80;67.40;;;;;;5060789;28;20180;-88
2021/03/25 04:20:26;;;;;;;6.77;5.47;;;6.90;67.70;;;;;;5062122;28;20184;-88
2021/03/25 04:23:00;;;;;;;6.13;5.53;;;6.90;67.90;;;;;;5064226;28;20230;-88
2021/03/25 04:25:34;;;;;;;5.40;4.90;;;6.80;67.50;;;;;;5065251;28;20180;-88
2021/03/25 04:28:12;;;;;;;6.00;5.40;;;6.70;68.10;;;;;;5063098;28;20184;-88
2021/03/25 04:30:43;;;;;;;5.50;5.00;;;6.60;68.00;;;;;;5065069;28;20180;-88
2021/03/25 04:33:11;;;;;;;7.67;5.43;;;6.50;68.80;;;;;;5064862;28;20160;-88
2021/03/25 04:35:41;;;;;;;5.67;5.10;;;6.50;68.90;;;;;;5064833;28;20674;-88
2021/03/25 04:38:09;;;;;;;5.23;4.73;;;6.40;68.50;;;;;;5063687;28;20185;-88
2021/03/25 04:40:37;;;;;;;5.63;4.60;;;6.30;68.20;;;;;;5065188;28;20168;-88
2021/03/25 04:43:03;;;;;;;5.30;4.80;;;6.30;69.00;;;;;;5063922;28;20246;-87
2021/03/25 04:45:50;;;;;;;5.20;4.73;;;6.20;68.60;;;;;;5064965;28;20750;-88
2021/03/25 04:48:21;;;;;;;5.17;4.67;;;6.20;69.10;;;;;;5064882;28;20197;-88
2021/03/25 04:50:58;;;;;;;5.97;4.70;;;6.30;68.50;;;;;;5065204;28;20229;-87
2021/03/25 04:53:32;;;;;;;5.70;4.57;;;6.30;68.00;;;;;;5064357;28;20548;-87
2021/03/25 04:55:58;;;;;;;5.53;4.97;;;6.20;67.70;;;;;;5059793;28;20183;-88
2021/03/25 04:58:33;;;;;;;6.73;4.93;;;6.20;67.80;;;;;;5044476;28;20180;-87
2021/03/25 05:01:23;;;;;;;5.17;4.67;;;6.20;68.90;;;;;;5044561;28;20192;-88
2021/03/25 05:03:54;;;;;;;6.23;4.90;;;6.30;68.40;;;;;;5044052;28;20272;-88
2021/03/25 05:06:22;;;;;;;5.10;4.60;;;6.30;68.40;;;;;;5044195;28;20204;-88
2021/03/25 05:08:49;;;;;;;5.47;4.63;;;6.30;68.00;;;;;;5044929;28;20173;-88
2021/03/25 05:11:21;;;;;;;5.07;4.57;;;6.20;67.40;;;;;;5045035;28;20205;-89
2021/03/25 05:13:47;;;;;;;5.53;5.03;;;6.10;68.00;;;;;;5044511;28;20712;-88
2021/03/25 05:16:28;;;;;;;6.00;5.40;;;6.00;69.20;;;;;;5042904;28;20553;-88
2021/03/25 05:19:06;;;;;;;7.87;4.93;;;6.00;68.60;;;;;;5044280;28;20654;-88
2021/03/25 05:22:07;;;;;;;8.03;5.40;;;5.90;68.90;;;;;;5043744;28;20205;-88
2021/03/25 05:24:42;;;;;;;7.33;5.10;;;5.80;68.90;;;;;;5043974;28;20169;-87
2021/03/25 05:27:28;;;;;;;5.70;5.07;;;5.90;69.40;;;;;;5043520;28;20263;-88
2021/03/25 05:29:56;;;;;;;8.77;5.20;;;6.00;69.10;;;;;;5043007;28;20197;-88
2021/03/25 05:32:26;;;;;;;16.53;7.00;;;6.00;68.80;;;;;;5043119;28;20197;-89
2021/03/25 05:34:53;;;;;;;13.07;6.93;;;6.00;68.20;;;;;;5043133;28;20192;-90
2021/03/25 05:37:20;;;;;;;11.97;6.60;;;6.00;68.70;;;;;;5044129;28;20291;-90
2021/03/25 05:39:47;;;;;;;13.40;6.60;;;5.90;68.60;;;;;;5044514;28;20584;-89
2021/03/25 05:42:29;;;;;;;10.17;7.03;;;6.00;69.10;;;;;;5044538;28;20213;-90
2021/03/25 05:45:32;;;;;;;10.00;7.20;;;6.10;68.80;;;;;;5044602;28;20647;-90
2021/03/25 05:48:01;;;;;;;8.10;5.83;;;6.10;68.40;;;;;;5044204;28;20184;-90
2021/03/25 05:50:30;;;;;;;10.10;6.80;;;6.10;68.50;;;;;;5044302;28;20196;-91
2021/03/25 05:53:16;;;;;;;12.07;6.93;;;6.00;68.00;;;;;;5051939;28;20204;-89
2021/03/25 05:56:04;;;;;;;12.33;6.87;;;6.00;69.00;;;;;;5060156;28;20169;-90
2021/03/25 05:58:41;;;;;;;7.87;7.03;;;5.90;69.70;;;;;;5044011;28;20621;-89
2021/03/25 06:01:25;;;;;;;8.77;7.13;;;5.80;70.70;;;;;;5043399;28;20196;-89
2021/03/25 06:04:02;;;;;;;8.40;6.37;;;5.70;71.90;;;;;;5043862;28;20173;-85
2021/03/25 06:06:37;;;;;;;6.13;5.53;;;5.70;72.00;;;;;;5042465;28;20197;-86
2021/03/25 06:09:13;;;;;;;6.30;5.70;;;5.80;71.80;;;;;;5047443;28;20179;-87
2021/03/25 06:11:54;;;;;;;6.63;5.77;;;6.00;71.10;;;;;;5056513;28;20196;-87
2021/03/25 06:14:39;;;;;;;9.37;5.50;;;6.10;70.90;;;;;;5052699;28;20168;-86
2021/03/25 06:17:29;;;;;;;6.70;5.37;;;6.00;71.10;;;;;;5051910;28;20209;-86
2021/03/25 06:20:02;;;;;;;8.40;5.77;;;6.10;71.50;;;;;;5051583;28;20184;-86
2021/03/25 06:22:35;;;;;;;12.60;10.00;;;6.10;71.30;;;;;;5046826;28;20204;-86
2021/03/25 06:25:22;;;;;;;11.97;8.90;;;6.10;71.50;;;;;;5044992;28;20218;-87
2021/03/25 06:27:50;;;;;;;13.70;9.63;;;6.20;71.50;;;;;;5052419;28;20219;-87
2021/03/25 06:30:22;;;;;;;11.13;9.03;;;6.30;71.30;;;;;;5053862;28;20702;-86
2021/03/25 06:32:51;;;;;;;9.53;8.00;;;6.30;71.00;;;;;;5052849;28;20192;-87
2021/03/25 06:35:27;;;;;;;12.93;8.37;;;6.30;71.70;;;;;;5054665;28;20169;-87
2021/03/25 06:38:28;;;;;;;10.80;7.20;;;6.30;71.70;;;;;;5048332;28;20164;-86
2021/03/25 06:41:17;;;;;;;8.40;7.00;;;6.30;71.70;;;;;;5042213;28;21530;-87
2021/03/25 06:43:53;;;;;;;7.80;7.00;;;6.30;72.30;;;;;;5054249;28;20282;-86
2021/03/25 06:46:39;;;;;;;8.43;7.53;;;5.90;74.00;;;;;;5053694;28;20332;-86
2021/03/25 06:49:27;;;;;;;14.73;7.13;;;5.80;75.70;;;;;;5054443;28;20191;-87
2021/03/25 06:51:55;;;;;;;8.70;6.67;;;5.70;76.30;;;;;;5053625;28;20215;-86
2021/03/25 06:54:26;;;;;;;8.03;5.97;;;5.60;76.80;;;;;;5055207;28;20184;-87
2021/03/25 06:56:56;;;;;;;10.10;6.70;;;5.60;77.00;;;;;;5044147;28;20179;-88
2021/03/25 06:59:38;;;;;;;7.70;6.90;;;5.60;77.90;;;;;;5051700;28;20263;-86
2021/03/25 07:02:23;;;;;;;7.07;6.23;;;5.60;78.40;;;;;;5044618;28;20239;-88
2021/03/25 07:04:52;;;;;;;7.60;6.77;;;5.70;78.50;;;;;;5055231;28;20207;-88
2021/03/25 07:07:23;;;;;;;8.23;7.37;;;5.80;78.20;;;;;;5052399;28;20200;-87
2021/03/25 07:09:50;;;;;;;8.67;6.90;;;6.00;77.30;;;;;;5039960;28;21648;-87
2021/03/25 07:12:20;;;;;;;9.13;7.30;;;6.10;77.80;;;;;;5052662;28;20196;-87
2021/03/25 07:14:47;;;;;;;11.87;7.10;;;6.20;77.60;;;;;;5056783;28;20199;-88
2021/03/25 07:17:15;;;;;;;8.33;7.50;;;6.30;77.70;;;;;;5055309;28;20199;-88
2021/03/25 07:19:49;;;;;;;8.53;7.07;;;6.20;77.20;;;;;;5056151;28;20181;-87
2021/03/25 07:22:27;;;;;;;9.83;6.60;;;6.30;77.60;;;;;;5048885;28;20195;-89
2021/03/25 07:25:13;;;;;;;7.93;7.00;;;6.30;76.60;;;;;;5042865;28;20242;-86
2021/03/25 07:27:39;;;;;;;7.93;7.13;;;6.30;78.40;;;;;;5040458;28;20211;-86
2021/03/25 07:30:09;;;;;;;7.70;6.90;;;6.50;77.30;;;;;;5048534;28;20181;-88
2021/03/25 07:32:45;;;;;;;10.60;7.47;;;6.50;75.90;;;;;;5045928;28;20215;-88
2021/03/25 07:35:28;;;;;;;12.17;7.73;;;6.70;76.40;;;;;;5043826;28;20649;-87
2021/03/25 07:37:54;;;;;;;8.57;7.60;;;6.90;74.60;;;;;;5040214;28;20173;-89
2021/03/25 07:40:33;;;;;;;11.43;7.60;;;7.00;74.80;;;;;;5052209;28;20200;-89
2021/03/25 07:43:22;;;;;;;9.83;7.53;;;7.20;74.20;;;;;;5051602;28;20226;-89
2021/03/25 07:45:48;;;;;;;9.63;7.73;;;7.30;74.40;;;;;;5053399;28;20226;-88
2021/03/25 07:48:23;;;;;;;10.23;7.97;;;7.50;73.20;;;;;;5055769;28;20177;-88
2021/03/25 07:50:51;;;;;;;8.87;7.67;;;7.50;72.50;;;;;;5054715;28;20214;-89
2021/03/25 07:53:19;;;;;;;8.60;7.73;;;7.50;73.00;;;;;;5055385;28;20181;-88
2021/03/25 07:55:45;;;;;;;9.83;7.80;;;7.70;73.40;;;;;;5056180;28;20683;-90
2021/03/25 07:58:38;;;;;;;12.67;8.50;;;7.90;73.00;;;;;;5059435;28;20176;-89
2021/03/25 08:01:13;;;;;;;10.47;7.63;;;8.00;70.10;;;;;;5057126;28;20188;-89
2021/03/25 08:03:52;;;;;;;10.60;8.10;;;8.00;70.70;;;;;;5051038;28;20187;-89
2021/03/25 08:06:35;;;;;;;8.33;7.53;;;8.00;71.20;;;;;;5065588;28;20540;-89
2021/03/25 08:09:13;;;;;;;15.17;8.27;;;8.20;71.10;;;;;;5058212;28;20180;-89
2021/03/25 08:11:57;;;;;;;9.37;7.90;;;8.40;69.50;;;;;;5058057;28;20273;-89
2021/03/25 08:14:24;;;;;;;13.57;8.10;;;8.60;68.70;;;;;;5055473;28;21155;-89
2021/03/25 08:16:59;;;;;;;8.07;7.27;;;8.60;69.40;;;;;;5073521;28;20173;-89
2021/03/25 08:19:24;;;;;;;9.17;8.20;;;8.80;68.60;;;;;;5054969;28;20180;-88
2021/03/25 08:22:12;;;;;;;9.67;8.07;;;9.00;67.20;;;;;;5050065;28;20699;-89
2021/03/25 08:25:15;;;;;;;9.20;7.73;;;9.00;66.70;;;;;;5054571;28;20593;-89
2021/03/25 08:28:04;;;;;;;9.63;7.83;;;9.00;67.70;;;;;;5054130;28;20208;-89
2021/03/25 08:30:51;;;;;;;9.13;7.67;;;9.10;68.40;;;;;;5005389;28;20204;-89
2021/03/25 08:33:41;;;;;;;8.77;7.53;;;9.10;67.30;;;;;;5051279;28;20748;-89
2021/03/25 08:36:23;;;;;;;9.43;7.40;;;9.10;66.60;;;;;;5054022;28;20248;-89
2021/03/25 08:39:01;;;;;;;8.67;7.67;;;9.30;66.10;;;;;;5048654;28;20263;-88
2021/03/25 08:41:46;;;;;;;8.53;7.27;;;9.60;65.10;;;;;;5055351;28;20226;-89
2021/03/25 08:44:19;;;;;;;8.73;7.37;;;9.70;65.00;;;;;;5056012;28;20192;-88
2021/03/25 08:46:51;;;;;;;8.33;7.30;;;9.90;64.60;;;;;;5060299;28;20219;-89
2021/03/25 08:49:26;;;;;;;7.87;7.03;;;10.00;61.60;;;;;;5049915;28;20200;-89
2021/03/25 08:51:54;;;;;;;8.47;6.80;;;10.30;62.00;;;;;;5055004;28;20206;-90
2021/03/25 08:54:27;;;;;;;8.47;6.60;;;10.40;61.50;;;;;;5055282;28;20757;-89
2021/03/25 08:57:05;;;;;;;8.00;7.20;;;10.50;62.00;;;;;;5050973;28;20208;-89
2021/03/25 08:59:37;;;;;;;7.27;6.57;;;10.90;59.00;;;;;;5051890;28;20243;-89
2021/03/25 09:02:08;;;;;;;8.43;6.60;;;10.90;59.40;;;;;;5052828;28;20267;-89
2021/03/25 09:04:38;;;;;;;8.00;7.20;;;11.00;59.20;;;;;;5053195;28;20687;-89
2021/03/25 09:07:05;;;;;;;11.03;6.37;;;11.10;59.20;;;;;;5044174;28;20197;-89
2021/03/25 09:09:41;;;;;;;13.23;6.90;;;11.20;59.00;;;;;;5057332;28;20211;-89
2021/03/25 09:12:27;;;;;;;7.73;6.40;;;11.40;59.20;;;;;;5051798;28;20691;-89
2021/03/25 09:14:55;;;;;;;8.00;6.73;;;11.40;57.00;;;;;;5050575;28;20180;-90
2021/03/25 09:17:24;;;;;;;7.47;6.33;;;11.60;57.70;;;;;;5055147;28;20177;-88
2021/03/25 09:19:54;;;;;;;9.37;7.20;;;11.80;55.80;;;;;;5045318;28;20234;-88
2021/03/25 09:22:44;;;;;;;21.00;7.00;;;11.80;57.00;;;;;;5045540;28;20207;-87
2021/03/25 09:25:16;;;;;;;8.00;6.90;;;12.20;56.60;;;;;;5049780;28;20243;-87
2021/03/25 09:28:00;;;;;;;8.27;7.00;;;12.40;55.00;;;;;;5046074;28;20218;-89
2021/03/25 09:30:35;;;;;;;8.43;6.37;;;12.40;54.70;;;;;;5071211;28;20181;-86
2021/03/25 09:33:37;;;;;;;7.63;6.40;;;12.50;54.10;;;;;;5049850;28;20200;-88
2021/03/25 09:36:18;;;;;;;7.43;6.73;;;12.80;52.40;;;;;;5055810;28;20803;-87
2021/03/25 09:38:45;;;;;;;11.90;7.60;;;13.00;52.60;;;;;;5072060;28;20234;-88
2021/03/25 09:41:24;;;;;;;7.30;6.30;;;13.20;53.10;;;;;;5056184;28;20208;-88
2021/03/25 09:44:10;;;;;;;11.80;7.60;;;13.30;51.90;;;;;;5063051;28;20224;-86
2021/03/25 09:46:54;;;;;;;15.93;7.53;;;13.50;51.80;;;;;;5048565;28;20199;-87
2021/03/25 09:52:08;;;;;;;10.23;7.60;;;13.70;48.60;;;;;;5053326;28;20806;-88
2021/03/25 09:54:45;;;;;;;11.53;9.20;;;13.90;49.10;;;;;;5046448;28;20187;-88
2021/03/25 09:57:29;;;;;;;11.87;8.87;;;14.00;47.70;;;;;;5052332;28;20202;-86
2021/03/25 09:59:55;;;;;;;26.27;10.77;;;13.90;49.60;;;;;;5047982;28;20197;-87
2021/03/25 10:02:58;;;;;;;15.43;9.43;;;13.80;49.20;;;;;;5050673;28;20210;-87
2021/03/25 10:05:36;;;;;;;13.97;9.20;;;14.00;48.50;;;;;;5013671;28;20199;-87
2021/03/25 10:08:13;;;;;;;13.73;9.43;;;14.00;49.20;;;;;;5041506;28;20618;-86
2021/03/25 10:10:57;;;;;;;13.60;9.13;;;14.00;50.20;;;;;;5052513;28;20185;-86
2021/03/25 10:13:29;;;;;;;12.03;9.70;;;14.10;49.40;;;;;;5049208;28;20191;-86
2021/03/25 10:15:59;;;;;;;13.40;10.20;;;14.40;48.70;;;;;;5050499;28;20183;-87
2021/03/25 10:18:25;;;;;;;13.33;10.80;;;14.40;48.90;;;;;;5051908;28;20202;-86
2021/03/25 10:21:09;;;;;;;15.97;11.60;;;14.80;48.70;;;;;;5053513;28;20187;-88
2021/03/25 10:23:55;;;;;;;14.53;11.17;;;15.00;48.30;;;;;;5051383;28;20183;-89
2021/03/25 10:26:32;;;;;;;14.70;11.50;;;15.10;49.00;;;;;;5052848;28;20640;-89
2021/03/25 10:29:03;;;;;;;21.03;12.30;;;14.90;48.80;;;;;;5053202;28;20191;-87
2021/03/25 10:31:34;;;;;;;14.27;11.77;;;15.10;49.60;;;;;;5065000;28;20283;-88
2021/03/25 10:34:19;;;;;;;14.97;12.03;;;15.30;46.70;;;;;;5062260;28;20183;-89
2021/03/25 10:37:04;;;;;;;18.07;13.63;;;15.20;47.50;;;;;;5056963;28;20184;-87
2021/03/25 10:39:37;;;;;;;17.80;13.23;;;15.10;48.20;;;;;;5055927;28;20188;-88
2021/03/25 10:42:26;;;;;;;16.13;12.53;;;15.00;48.30;;;;;;5060362;28;20715;-88
2021/03/25 10:44:52;;;;;;;16.63;12.63;;;14.90;49.40;;;;;;5056930;28;20594;-87
2021/03/25 10:47:23;;;;;;;13.63;11.70;;;15.10;50.10;;;;;;5057449;28;20227;-88
2021/03/25 10:49:54;;;;;;;17.50;13.53;;;15.50;49.30;;;;;;5053747;28;20189;-88
2021/03/25 10:52:24;;;;;;;18.50;13.90;;;15.70;48.10;;;;;;5052902;28;20346;-88
2021/03/25 10:54:49;;;;;;;18.90;13.87;;;15.60;47.10;;;;;;5058998;28;20508;-89
2021/03/25 10:57:27;;;;;;;15.53;13.87;;;15.60;46.10;;;;;;5060681;28;20203;-90
2021/03/25 11:00:01;;;;;;;17.57;13.57;;;15.60;48.00;;;;;;5055823;28;20188;-89
2021/03/25 11:02:29;;;;;;;15.87;13.17;;;15.60;46.90;;;;;;5060123;28;20211;-90
2021/03/25 11:05:28;;;;;;;16.83;12.97;;;15.60;47.00;;;;;;5055057;28;20206;-90
2021/03/25 11:08:02;;;;;;;17.73;13.70;;;15.60;47.70;;;;;;5055956;28;20208;-91
2021/03/25 11:10:30;;;;;;;38.97;20.37;;;15.80;46.90;;;;;;5059588;28;20189;-91
2021/03/25 11:13:19;;;;;;;27.93;16.73;;;15.90;45.60;;;;;;5055722;28;20556;-89
2021/03/25 11:16:08;;;;;;;23.60;14.83;;;16.00;45.80;;;;;;5057255;28;20181;-91
2021/03/25 11:18:45;;;;;;;31.07;15.63;;;15.90;47.20;;;;;;5058472;28;20203;-89
2021/03/25 11:21:20;;;;;;;21.97;15.23;;;16.10;46.20;;;;;;5060976;28;20230;-89
2021/03/25 11:23:46;;;;;;;19.70;14.60;;;16.10;45.10;;;;;;5056165;28;20192;-88
2021/03/25 11:26:15;;;;;;;24.33;16.93;;;16.30;46.00;;;;;;5062700;28;20223;-89
2021/03/25 11:28:41;;;;;;;75.73;64.27;;;16.30;45.80;;;;;;5064319;28;20218;-90
2021/03/25 11:31:25;;;;;;;16.47;14.03;;;16.40;46.70;;;;;;5062192;28;20279;-91
2021/03/25 11:33:53;;;;;;;18.20;13.90;;;16.30;47.30;;;;;;5058217;28;20682;-90
2021/03/25 11:36:43;;;;;;;19.23;15.23;;;16.40;45.40;;;;;;5066834;28;20676;-89
2021/03/25 11:39:27;;;;;;;22.87;20.57;;;16.60;44.20;;;;;;5072208;28;20186;-90
2021/03/25 11:42:03;;;;;;;21.30;15.07;;;16.80;44.40;;;;;;5052674;28;20239;-89
2021/03/25 11:44:37;;;;;;;21.13;14.60;;;16.70;43.90;;;;;;5060121;28;20183;-90
2021/03/25 11:47:42;;;;;;;16.37;14.60;;;16.60;45.30;;;;;;5061265;28;20228;-90
2021/03/25 11:50:29;;;;;;;16.67;14.73;;;16.50;45.30;;;;;;5061791;28;20196;-91
2021/03/25 11:52:59;;;;;;;22.17;14.33;;;16.70;45.40;;;;;;5053187;28;20200;-89
2021/03/25 11:55:42;;;;;;;19.03;15.63;;;16.80;44.40;;;;;;5063161;28;20223;-90
2021/03/25 11:58:21;;;;;;;18.87;14.70;;;16.80;45.70;;;;;;5050225;28;20234;-89
2021/03/25 12:01:04;;;;;;;18.53;15.37;;;16.80;45.60;;;;;;5051289;28;20207;-89
2021/03/25 12:03:35;;;;;;;20.83;15.47;;;16.90;45.80;;;;;;5043714;28;20198;-90
2021/03/25 12:06:01;;;;;;;21.47;15.70;;;16.90;45.00;;;;;;5084466;28;20191;-89
2021/03/25 12:08:31;;;;;;;18.60;15.60;;;16.80;44.20;;;;;;5053020;28;20219;-89
2021/03/25 12:11:06;;;;;;;18.40;15.47;;;16.80;44.60;;;;;;5056975;28;20257;-90
2021/03/25 12:13:32;;;;;;;18.27;15.23;;;17.10;44.70;;;;;;5054255;28;20187;-90
2021/03/25 12:15:59;;;;;;;19.33;15.90;;;17.40;44.30;;;;;;5056062;28;20263;-90
2021/03/25 12:18:34;;;;;;;19.53;16.70;;;17.40;44.50;;;;;;5056107;28;20201;-89
2021/03/25 12:21:06;;;;;;;20.67;17.80;;;17.60;43.70;;;;;;5055998;28;20214;-89
2021/03/25 12:23:36;;;;;;;29.03;25.73;;;17.70;42.60;;;;;;5057372;28;20215;-89
2021/03/25 12:26:06;;;;;;;18.40;16.47;;;17.90;42.50;;;;;;5055483;28;20185;-89
2021/03/25 12:28:33;;;;;;;22.67;18.07;;;18.10;42.00;;;;;;5055064;28;20188;-91
2021/03/25 12:30:59;;;;;;;22.83;17.63;;;18.20;42.30;;;;;;5057228;28;20200;-89
2021/03/25 12:33:33;;;;;;;19.93;16.40;;;18.30;41.80;;;;;;5064841;28;20202;-89
2021/03/25 12:36:00;;;;;;;19.90;17.10;;;18.30;41.90;;;;;;5045758;28;20189;-89
2021/03/25 12:38:27;;;;;;;22.57;20.33;;;18.00;42.00;;;;;;5062694;28;20200;-89
2021/03/25 12:40:53;;;;;;;21.63;18.93;;;18.10;43.10;;;;;;5059431;28;20195;-89
2021/03/25 12:43:22;;;;;;;19.63;16.60;;;18.30;41.60;;;;;;5051800;28;20197;-90
2021/03/25 12:45:51;;;;;;;18.57;15.50;;;18.40;41.80;;;;;;5059307;28;20186;-89
2021/03/25 12:48:22;;;;;;;16.67;14.60;;;18.10;40.20;;;;;;5060385;28;20183;-91
2021/03/25 12:50:50;;;;;;;18.33;13.03;;;18.20;39.20;;;;;;5057332;28;20187;-90
2021/03/25 12:53:16;;;;;;;20.13;12.90;;;18.40;38.60;;;;;;5056334;28;20206;-91
2021/03/25 12:55:41;;;;;;;23.20;13.37;;;18.60;38.90;;;;;;5058999;28;20185;-90
2021/03/25 12:58:20;;;;;;;13.73;12.20;;;18.70;36.70;;;;;;5056243;28;20199;-90
2021/03/25 13:00:47;;;;;;;16.30;13.70;;;19.00;37.50;;;;;;5059060;28;20332;-90
2021/03/25 13:03:13;;;;;;;15.63;12.83;;;19.40;36.60;;;;;;5057292;28;20199;-89
2021/03/25 13:05:39;;;;;;;20.70;13.13;;;19.60;36.60;;;;;;5057278;28;20192;-90
2021/03/25 13:08:05;;;;;;;19.58;11.45;;;19.80;36.20;;;;;;5063359;28;20219;-90
2021/03/25 13:10:30;;;;;;;13.05;10.80;;;19.90;34.70;;;;;;5059991;28;20246;-91
2021/03/25 13:12:57;;;;;;;11.57;10.40;;;19.70;35.10;;;;;;5060332;28;20341;-90
2021/03/25 13:15:24;;;;;;;14.45;11.80;;;19.70;36.00;;;;;;5054028;28;20191;-90
2021/03/25 13:17:50;;;;;;;18.40;12.30;;;19.40;36.20;;;;;;5055948;28;20301;-89
2021/03/25 13:20:18;;;;;;;17.30;12.67;;;19.20;36.70;;;;;;5063383;28;20174;-90
2021/03/25 13:22:43;;;;;;;15.43;12.73;;;19.20;36.50;;;;;;5061747;28;20283;-90
2021/03/25 13:25:10;;;;;;;13.00;11.38;;;19.10;37.60;;;;;;5058273;28;20199;-89
2021/03/25 13:27:37;;;;;;;14.20;12.57;;;19.10;38.00;;;;;;5061388;28;20209;-90